createdAt,value
2019-02-16T00:00:23.890Z,6.65
2019-02-16T00:02:52.412Z,5.97
2019-02-16T00:05:21.585Z,5.60
2019-02-16T00:07:49.849Z,5.95
2019-02-16T00:10:18.439Z,6.40
2019-02-16T00:12:47.564Z,5.83
2019-02-16T00:15:16.249Z,5.95
2019-02-16T00:17:44.642Z,6.25
2019-02-16T00:20:13.146Z,5.83
2019-02-16T00:22:41.818Z,5.78
2019-02-16T00:25:10.166Z,6.12
2019-02-16T00:27:38.484Z,6.25
2019-02-16T00:30:09.826Z,6.17
2019-02-16T00:32:39.498Z,6.50
2019-02-16T00:35:07.745Z,6.35
2019-02-16T00:37:36.322Z,6.50
2019-02-16T00:40:07.082Z,6.20
2019-02-16T00:42:37.645Z,6.53
2019-02-16T00:45:07.232Z,5.67
2019-02-16T00:47:35.734Z,6.37
2019-02-16T00:50:05.005Z,5.47
2019-02-16T00:52:33.299Z,5.58
2019-02-16T00:55:01.874Z,6.83
2019-02-16T00:57:30.385Z,6.47
2019-02-16T00:59:59.790Z,6.67
2019-02-16T01:02:28.182Z,6.95
2019-02-16T01:04:59.321Z,6.33
2019-02-16T01:07:27.562Z,6.60
2019-02-16T01:09:56.651Z,6.90
2019-02-16T01:12:24.879Z,6.25
2019-02-16T01:14:54.982Z,6.50
2019-02-16T01:17:23.837Z,6.20
2019-02-16T01:19:52.077Z,5.47
2019-02-16T01:22:20.321Z,7.20
2019-02-16T01:24:49.479Z,5.95
2019-02-16T01:27:17.702Z,6.58
2019-02-16T01:29:46.055Z,5.55
2019-02-16T01:32:15.049Z,5.97
2019-02-16T01:34:43.300Z,6.55
2019-02-16T01:37:15.208Z,6.62
2019-02-16T01:39:43.653Z,7.22
2019-02-16T01:42:11.906Z,6.75
2019-02-16T01:44:40.457Z,6.33
2019-02-16T01:47:08.890Z,7.55
2019-02-16T01:49:38.174Z,6.53
2019-02-16T01:52:07.115Z,6.72
2019-02-16T01:54:35.683Z,6.87
2019-02-16T01:57:03.905Z,6.47
2019-02-16T01:59:32.554Z,6.83
2019-02-16T02:02:02.986Z,6.20
2019-02-16T02:04:31.217Z,7.62
2019-02-16T02:06:59.466Z,7.40
2019-02-16T02:09:28.979Z,7.00
2019-02-16T02:11:57.909Z,6.65
2019-02-16T02:14:27.354Z,7.40
2019-02-16T02:16:56.613Z,6.70
2019-02-16T02:19:24.836Z,7.20
2019-02-16T02:21:55.783Z,8.18
2019-02-16T02:24:24.297Z,7.67
2019-02-16T02:26:52.615Z,6.65
2019-02-16T02:29:20.869Z,7.72
2019-02-16T02:31:49.668Z,7.03
2019-02-16T02:34:18.469Z,7.87
2019-02-16T02:36:46.721Z,7.53
2019-02-16T02:39:15.047Z,9.00
2019-02-16T02:41:43.283Z,10.75
2019-02-16T02:44:11.513Z,10.60
2019-02-16T02:46:40.475Z,10.40
2019-02-16T02:49:08.710Z,9.48
2019-02-16T02:51:36.947Z,9.30
2019-02-16T02:54:05.172Z,8.38
2019-02-16T02:56:33.865Z,8.38
2019-02-16T02:59:02.135Z,7.12
2019-02-16T03:01:30.383Z,7.35
2019-02-16T03:03:59.210Z,6.90
2019-02-16T03:06:28.227Z,6.90
2019-02-16T03:09:00.507Z,7.72
2019-02-16T03:11:29.264Z,7.12
2019-02-16T03:13:57.574Z,7.03
2019-02-16T03:16:26.261Z,7.28
2019-02-16T03:18:56.632Z,7.85
2019-02-16T03:21:24.894Z,7.35
2019-02-16T03:23:53.228Z,7.10
2019-02-16T03:26:40.691Z,7.80
2019-02-16T03:29:27.326Z,7.20
2019-02-16T03:32:01.793Z,8.23
2019-02-16T03:34:33.302Z,6.85
2019-02-16T03:37:38.254Z,7.25
2019-02-16T03:40:09.165Z,7.25
2019-02-16T03:42:37.432Z,7.10
2019-02-16T03:45:06.705Z,7.22
2019-02-16T03:47:35.030Z,7.17
2019-02-16T03:50:04.809Z,7.42
2019-02-16T03:52:35.098Z,7.20
2019-02-16T03:55:04.329Z,7.17
2019-02-16T03:57:32.586Z,7.55
2019-02-16T04:00:01.046Z,7.28
2019-02-16T04:02:29.340Z,6.58
2019-02-16T04:04:59.638Z,7.72
2019-02-16T04:07:28.249Z,7.22
2019-02-16T04:09:56.667Z,7.05
2019-02-16T04:12:25.263Z,7.22
2019-02-16T04:14:53.878Z,7.95
2019-02-16T04:17:22.109Z,7.85
2019-02-16T04:19:52.001Z,6.90
2019-02-16T04:22:24.610Z,6.75
2019-02-16T04:24:50.509Z,6.20
2019-02-16T04:27:18.729Z,8.20
2019-02-16T04:29:47.242Z,6.87
2019-02-16T04:32:15.552Z,7.95
2019-02-16T04:34:44.351Z,7.15
2019-02-16T04:37:12.809Z,7.47
2019-02-16T04:39:41.077Z,8.55
2019-02-16T04:42:09.342Z,7.33
2019-02-16T04:44:38.446Z,7.85
2019-02-16T04:47:06.741Z,7.60
2019-02-16T04:49:35.011Z,7.78
2019-02-16T04:52:03.677Z,7.25
2019-02-16T04:54:31.924Z,8.50
2019-02-16T04:57:00.196Z,6.72
2019-02-16T04:59:28.529Z,7.53
2019-02-16T05:01:56.742Z,7.15
2019-02-16T05:04:25.011Z,8.03
2019-02-16T05:06:53.553Z,7.92
2019-02-16T05:09:21.806Z,7.15
2019-02-16T05:11:50.322Z,7.92
2019-02-16T05:14:18.746Z,9.28
2019-02-16T05:16:48.889Z,8.08
2019-02-16T05:19:17.098Z,7.58
2019-02-16T05:21:47.311Z,7.35
2019-02-16T05:24:15.547Z,7.58
2019-02-16T05:26:44.633Z,7.60
2019-02-16T05:29:16.402Z,7.35
2019-02-16T05:31:44.635Z,7.28
2019-02-16T05:34:12.849Z,7.97
2019-02-16T05:36:42.412Z,7.33
2019-02-16T05:39:10.654Z,8.33
2019-02-16T05:41:38.895Z,7.10
2019-02-16T05:44:08.979Z,7.97
2019-02-16T05:46:37.400Z,6.95
2019-02-16T05:49:05.796Z,7.70
2019-02-16T05:51:35.440Z,8.05
2019-02-16T05:54:03.775Z,8.33
2019-02-16T05:56:32.109Z,8.60
2019-02-16T05:59:00.700Z,9.10
2019-02-16T06:01:29.819Z,8.38
2019-02-16T06:03:58.167Z,8.55
2019-02-16T06:06:27.191Z,9.25
2019-02-16T06:08:56.463Z,8.23
2019-02-16T06:11:25.733Z,9.00
2019-02-16T06:13:54.531Z,8.93
2019-02-16T06:16:24.211Z,9.15
2019-02-16T06:18:52.536Z,8.43
2019-02-16T06:21:21.738Z,8.13
2019-02-16T06:23:50.138Z,8.63
2019-02-16T06:26:18.470Z,8.95
2019-02-16T06:28:47.782Z,8.78
2019-02-16T06:31:16.216Z,10.05
2019-02-16T06:33:44.462Z,9.53
2019-02-16T06:36:15.271Z,9.78
2019-02-16T06:38:43.614Z,10.13
2019-02-16T06:41:11.865Z,9.88
2019-02-16T06:43:43.811Z,10.10
2019-02-16T06:46:12.206Z,10.00
2019-02-16T06:48:40.441Z,9.75
2019-02-16T06:51:10.834Z,9.98
2019-02-16T06:53:39.243Z,10.53
2019-02-16T06:56:09.338Z,8.45
2019-02-16T06:58:38.375Z,9.48
2019-02-16T07:01:06.782Z,10.00
2019-02-16T07:03:35.272Z,9.35
2019-02-16T07:06:03.643Z,9.08
2019-02-16T07:08:32.761Z,8.95
2019-02-16T07:11:01.105Z,9.23
2019-02-16T07:13:29.464Z,12.03
2019-02-16T07:16:16.059Z,9.83
2019-02-16T07:18:46.822Z,9.88
2019-02-16T07:21:17.780Z,9.53
2019-02-16T07:23:46.907Z,9.23
2019-02-16T07:26:25.506Z,10.28
2019-02-16T07:28:53.734Z,9.70
2019-02-16T07:31:21.993Z,10.43
2019-02-16T07:33:55.745Z,9.00
2019-02-16T07:36:24.005Z,9.58
2019-02-16T07:38:53.102Z,9.80
2019-02-16T07:41:21.322Z,9.68
2019-02-16T07:43:51.307Z,10.45
2019-02-16T07:46:27.863Z,8.18
2019-02-16T07:49:06.469Z,9.35
2019-02-16T07:51:45.453Z,10.45
2019-02-16T07:54:18.194Z,9.48
2019-02-16T07:56:49.953Z,9.55
2019-02-16T07:59:19.926Z,9.20
2019-02-16T08:01:56.666Z,9.43
2019-02-16T08:04:38.439Z,9.48
2019-02-16T08:07:25.239Z,9.75
2019-02-16T08:10:01.187Z,9.78
2019-02-16T08:12:31.523Z,9.80
2019-02-16T08:17:55.723Z,9.18
2019-02-16T08:20:25.718Z,9.05
2019-02-16T08:23:07.823Z,8.98
2019-02-16T08:25:52.693Z,9.23
2019-02-16T08:28:29.145Z,9.25
2019-02-16T08:31:01.901Z,10.30
2019-02-16T08:33:38.123Z,10.08
2019-02-16T08:36:24.616Z,10.60
2019-02-16T08:39:04.562Z,9.18
2019-02-16T08:41:50.585Z,9.85
2019-02-16T08:44:23.626Z,10.18
2019-02-16T08:47:12.445Z,9.75
2019-02-16T08:49:48.626Z,9.75
2019-02-16T08:52:18.519Z,10.48
2019-02-16T08:54:48.486Z,10.50
2019-02-16T08:57:24.902Z,9.70
2019-02-16T09:00:06.608Z,9.10
2019-02-16T09:02:42.874Z,9.65
2019-02-16T09:05:28.411Z,9.95
2019-02-16T09:08:09.146Z,9.48
2019-02-16T09:10:43.207Z,8.85
2019-02-16T09:13:13.424Z,9.88
2019-02-16T09:15:43.640Z,10.28
2019-02-16T09:18:29.490Z,11.30
2019-02-16T09:21:14.819Z,8.90
2019-02-16T09:23:59.787Z,8.83
2019-02-16T09:26:53.608Z,7.92
2019-02-16T09:29:26.563Z,10.40
2019-02-16T09:32:03.929Z,8.38
2019-02-16T09:34:36.350Z,9.50
2019-02-16T09:37:17.921Z,9.25
2019-02-16T09:40:06.065Z,9.68
2019-02-16T09:42:36.758Z,8.80
2019-02-16T09:45:25.422Z,16.07
2019-02-16T09:48:09.610Z,9.20
2019-02-16T09:50:40.632Z,11.48
2019-02-16T09:53:28.529Z,9.77
2019-02-16T09:55:59.809Z,9.50
2019-02-16T09:58:38.510Z,9.28
2019-02-16T10:01:08.388Z,9.40
2019-02-16T10:03:57.822Z,9.43
2019-02-16T10:06:39.722Z,10.03
2019-02-16T10:09:21.727Z,10.72
2019-02-16T10:12:00.595Z,9.23
2019-02-16T10:14:35.061Z,10.13
2019-02-16T10:17:04.978Z,9.68
2019-02-16T10:19:38.477Z,9.58
2019-02-16T10:22:10.979Z,9.10
2019-02-16T10:24:56.336Z,9.70
2019-02-16T10:27:26.218Z,9.85
2019-02-16T10:30:01.960Z,10.32
2019-02-16T10:32:44.851Z,11.18
2019-02-16T10:35:15.946Z,10.88
2019-02-16T10:37:52.052Z,10.00
2019-02-16T10:40:25.341Z,10.75
2019-02-16T10:43:01.377Z,11.45
2019-02-16T10:48:21.592Z,13.05
2019-02-16T10:51:02.642Z,11.35
2019-02-16T10:53:35.865Z,11.70
2019-02-16T10:56:18.941Z,12.10
2019-02-16T10:59:12.027Z,11.48
2019-02-16T11:02:00.431Z,10.58
2019-02-16T11:04:38.113Z,11.15
2019-02-16T11:07:03.911Z,11.18
2019-02-16T11:09:41.698Z,12.03
2019-02-16T11:12:13.246Z,11.65
2019-02-16T11:14:59.048Z,11.97
2019-02-16T11:17:30.290Z,12.05
2019-02-16T11:20:00.290Z,11.30
2019-02-16T11:22:41.385Z,11.48
2019-02-16T11:25:12.622Z,12.40
2019-02-16T11:27:42.780Z,12.33
2019-02-16T11:30:15.413Z,12.07
2019-02-16T11:32:45.777Z,17.70
2019-02-16T11:35:18.602Z,13.13
2019-02-16T11:38:03.941Z,13.55
2019-02-16T11:40:35.535Z,13.15
2019-02-16T11:45:58.106Z,14.10
2019-02-16T11:48:35.380Z,13.13
2019-02-16T11:51:21.772Z,13.00
2019-02-16T11:54:12.319Z,13.18
2019-02-16T11:56:51.011Z,13.40
2019-02-16T11:59:24.166Z,13.20
2019-02-16T12:01:55.892Z,14.00
2019-02-16T12:04:26.133Z,12.95
2019-02-16T12:07:00.255Z,13.35
2019-02-16T12:09:36.322Z,14.10
2019-02-16T12:12:24.036Z,15.45
2019-02-16T12:15:02.881Z,13.88
2019-02-16T12:17:42.641Z,13.40
2019-02-16T12:20:15.530Z,13.22
2019-02-16T12:22:47.350Z,14.70
2019-02-16T12:27:53.052Z,12.40
2019-02-16T12:30:45.564Z,13.90
2019-02-16T12:33:19.413Z,13.95
2019-02-16T12:36:06.474Z,13.78
2019-02-16T12:38:42.959Z,13.58
2019-02-16T12:41:21.663Z,14.47
2019-02-16T12:43:57.800Z,13.88
2019-02-16T12:46:33.690Z,13.88
2019-02-16T12:49:21.195Z,16.32
2019-02-16T12:52:07.106Z,15.40
2019-02-16T12:54:45.430Z,14.35
2019-02-16T12:57:18.156Z,15.55
2019-02-16T13:00:04.899Z,20.70
2019-02-16T13:02:34.835Z,19.98
2019-02-16T13:05:04.862Z,16.40
2019-02-16T13:07:40.870Z,15.45
2019-02-16T13:10:10.798Z,14.53
2019-02-16T13:12:41.360Z,12.73
2019-02-16T13:15:20.596Z,15.25
2019-02-16T13:17:59.494Z,14.68
2019-02-16T13:20:37.829Z,16.62
2019-02-16T13:23:07.715Z,15.23
2019-02-16T13:25:37.652Z,15.23
2019-02-16T13:28:10.099Z,14.98
2019-02-16T13:30:44.389Z,15.03
2019-02-16T13:33:16.937Z,17.15
2019-02-16T13:35:49.618Z,16.50
2019-02-16T13:38:23.314Z,17.23
2019-02-16T13:40:53.202Z,16.65
2019-02-16T13:43:23.088Z,16.65
2019-02-16T13:46:02.890Z,15.32
2019-02-16T13:48:32.787Z,16.35
2019-02-16T13:51:05.668Z,15.00
2019-02-16T13:53:48.622Z,14.50
2019-02-16T13:56:36.487Z,15.48
2019-02-16T13:59:16.032Z,14.40
2019-02-16T14:02:02.742Z,15.93
2019-02-16T14:04:35.728Z,15.18
2019-02-16T14:07:15.434Z,14.68
2019-02-16T14:09:45.335Z,19.82
2019-02-16T14:12:21.218Z,20.70
2019-02-16T14:14:59.850Z,19.02
2019-02-16T14:20:19.738Z,15.10
2019-02-16T14:22:47.992Z,16.07
2019-02-16T14:25:17.898Z,14.50
2019-02-16T14:27:47.459Z,14.00
2019-02-16T14:30:15.712Z,15.78
2019-02-16T14:32:43.950Z,15.90
2019-02-16T14:35:12.201Z,15.70
2019-02-16T14:37:49.440Z,14.80
2019-02-16T14:40:17.682Z,15.70
2019-02-16T14:42:45.938Z,22.35
2019-02-16T14:45:15.576Z,27.55
2019-02-16T14:47:44.185Z,14.65
2019-02-16T14:50:12.542Z,14.50
2019-02-16T14:52:42.121Z,14.90
2019-02-16T14:55:13.611Z,15.08
2019-02-16T14:57:41.878Z,14.45
2019-02-16T15:00:12.452Z,14.30
2019-02-16T15:02:40.695Z,15.40
2019-02-16T15:05:09.596Z,15.20
2019-02-16T15:07:37.912Z,15.15
2019-02-16T15:10:11.535Z,14.68
2019-02-16T15:12:39.798Z,15.08
2019-02-16T15:15:10.859Z,16.15
2019-02-16T15:17:39.391Z,14.37
2019-02-16T15:20:10.454Z,13.30
2019-02-16T15:22:38.683Z,16.33
2019-02-16T15:25:10.974Z,15.30
2019-02-16T15:27:39.346Z,15.72
2019-02-16T15:30:18.989Z,14.60
2019-02-16T15:32:47.206Z,14.20
2019-02-16T15:35:15.635Z,14.60
2019-02-16T15:37:44.549Z,16.55
2019-02-16T15:40:14.655Z,14.98
2019-02-16T15:42:42.894Z,14.15
2019-02-16T15:45:16.012Z,14.55
2019-02-16T15:47:44.297Z,14.90
2019-02-16T15:50:15.569Z,15.00
2019-02-16T15:52:44.153Z,14.38
2019-02-16T15:55:12.663Z,14.58
2019-02-16T15:57:40.949Z,14.55
2019-02-16T16:00:14.677Z,28.17
2019-02-16T16:02:42.919Z,15.43
2019-02-16T16:05:11.181Z,15.60
2019-02-16T16:07:41.593Z,15.68
2019-02-16T16:10:17.458Z,16.02
2019-02-16T16:13:03.760Z,14.15
2019-02-16T16:15:42.392Z,15.50
2019-02-16T16:18:08.310Z,15.23
2019-02-16T16:20:38.198Z,14.95
2019-02-16T16:23:08.171Z,14.28
2019-02-16T16:25:39.667Z,14.47
2019-02-16T16:28:09.862Z,15.18
2019-02-16T16:30:39.786Z,14.43
2019-02-16T16:33:09.682Z,16.45
2019-02-16T16:35:55.830Z,14.93
2019-02-16T16:38:37.952Z,14.23
2019-02-16T16:43:59.308Z,16.62
2019-02-16T16:46:46.080Z,15.40
2019-02-16T16:49:20.008Z,15.93
2019-02-16T16:51:53.758Z,14.05
2019-02-16T16:54:26.596Z,15.78
2019-02-16T16:56:56.891Z,14.10
2019-02-16T16:59:35.633Z,13.78
2019-02-16T17:02:05.963Z,13.55
2019-02-16T17:04:43.886Z,15.72
2019-02-16T17:07:20.318Z,14.38
2019-02-16T17:09:50.214Z,15.68
2019-02-16T17:12:20.106Z,15.78
2019-02-16T17:14:50.120Z,15.78
2019-02-16T17:17:22.966Z,16.80
2019-02-16T17:19:53.156Z,16.95
2019-02-16T17:22:25.936Z,16.17
2019-02-16T17:24:55.934Z,17.42
2019-02-16T17:27:25.873Z,16.85
2019-02-16T17:29:59.593Z,17.35
2019-02-16T17:32:45.956Z,16.82
2019-02-16T17:35:32.317Z,16.52
2019-02-16T17:38:02.761Z,20.00
2019-02-16T17:40:32.650Z,26.95
2019-02-16T17:43:06.300Z,16.42
2019-02-16T17:45:39.039Z,17.87
2019-02-16T17:48:23.025Z,17.90
2019-02-16T17:51:07.878Z,19.65
2019-02-16T17:53:39.303Z,19.37
2019-02-16T17:56:14.910Z,20.27
2019-02-16T17:58:51.928Z,21.65
2019-02-16T18:01:21.814Z,27.27
2019-02-16T18:04:04.236Z,19.32
2019-02-16T18:06:43.078Z,21.55
2019-02-16T18:09:34.030Z,19.73
2019-02-16T18:12:17.040Z,20.62
2019-02-16T18:15:09.241Z,21.20
2019-02-16T18:17:39.141Z,22.98
2019-02-16T18:20:14.991Z,22.67
2019-02-16T18:22:53.722Z,22.85
2019-02-16T18:25:31.483Z,24.27
2019-02-16T18:28:04.273Z,22.07
2019-02-16T18:30:47.000Z,25.17
2019-02-16T18:33:20.026Z,24.52
2019-02-16T18:35:53.306Z,24.20
2019-02-16T18:38:27.000Z,24.75
2019-02-16T18:41:08.235Z,24.15
2019-02-16T18:43:50.128Z,24.23
2019-02-16T18:46:26.304Z,24.27
2019-02-16T18:48:56.489Z,38.15
2019-02-16T18:51:38.074Z,46.88
2019-02-16T18:54:23.846Z,62.55
2019-02-16T18:57:06.696Z,51.42
2019-02-16T18:59:37.825Z,41.88
2019-02-16T19:02:26.875Z,38.75
2019-02-16T19:04:58.239Z,36.68
2019-02-16T19:07:43.573Z,34.18
2019-02-16T19:10:16.789Z,34.63
2019-02-16T19:12:49.803Z,37.15
2019-02-16T19:15:25.350Z,39.58
2019-02-16T19:18:06.113Z,52.35
2019-02-16T19:20:55.599Z,38.60
2019-02-16T19:23:26.453Z,38.85
2019-02-16T19:26:02.443Z,38.42
2019-02-16T19:28:33.700Z,30.62
2019-02-16T19:31:13.547Z,30.00
2019-02-16T19:33:49.766Z,31.90
2019-02-16T19:36:22.435Z,31.10
2019-02-16T19:39:05.220Z,30.12
2019-02-16T19:41:51.589Z,30.43
2019-02-16T19:44:39.395Z,32.85
2019-02-16T19:47:25.381Z,32.50
2019-02-16T19:50:01.331Z,29.95
2019-02-16T19:52:47.450Z,28.67
2019-02-16T19:55:35.658Z,70.15
2019-02-16T19:58:17.795Z,102.42
2019-02-16T20:03:28.414Z,30.15
2019-02-16T20:06:14.784Z,34.70
2019-02-16T20:09:01.541Z,30.27
2019-02-16T20:11:47.562Z,29.15
2019-02-16T20:14:24.475Z,29.75
2019-02-16T20:16:57.217Z,31.68
2019-02-16T20:19:41.475Z,33.83
2019-02-16T20:22:11.420Z,53.15
2019-02-16T20:24:44.809Z,30.65
2019-02-16T20:27:19.356Z,30.88
2019-02-16T20:29:55.567Z,31.82
2019-02-16T20:32:25.520Z,32.20
2019-02-16T20:35:14.657Z,32.53
2019-02-16T20:37:44.548Z,30.30
2019-02-16T20:40:20.469Z,33.30
2019-02-16T20:42:53.344Z,31.70
2019-02-16T20:45:29.861Z,33.73
2019-02-16T20:48:03.469Z,30.97
2019-02-16T20:50:49.288Z,29.95
2019-02-16T20:53:34.214Z,29.72
2019-02-16T20:56:08.191Z,31.07
2019-02-16T20:58:43.552Z,25.65
2019-02-16T21:01:23.313Z,27.27
2019-02-16T21:03:56.910Z,27.25
2019-02-16T21:06:27.767Z,25.88
2019-02-16T21:08:57.914Z,26.15
2019-02-16T21:11:27.827Z,25.00
2019-02-16T21:14:00.785Z,24.92
2019-02-16T21:16:46.986Z,25.70
2019-02-16T21:19:17.274Z,31.33
2019-02-16T21:21:53.056Z,27.55
2019-02-16T21:24:38.098Z,29.18
2019-02-16T21:27:08.067Z,29.27
2019-02-16T21:29:37.951Z,27.13
2019-02-16T21:32:14.553Z,24.02
2019-02-16T21:34:46.418Z,24.82
2019-02-16T21:37:28.718Z,26.35
2019-02-16T21:42:49.059Z,22.55
2019-02-16T21:45:21.795Z,22.45
2019-02-16T21:47:55.098Z,22.85
2019-02-16T21:50:43.815Z,23.35
2019-02-16T21:53:21.518Z,23.22
2019-02-16T21:55:49.387Z,23.38
2019-02-16T21:58:26.810Z,23.62
2019-02-16T22:00:59.358Z,22.20
2019-02-16T22:03:38.309Z,21.55
2019-02-16T22:06:09.821Z,21.12
2019-02-16T22:08:54.884Z,24.07
2019-02-16T22:11:24.826Z,24.12
2019-02-16T22:13:53.107Z,23.05
2019-02-16T22:16:22.101Z,21.55
2019-02-16T22:18:50.372Z,21.45
2019-02-16T22:21:19.370Z,19.20
2019-02-16T22:23:48.110Z,20.23
2019-02-16T22:26:17.787Z,18.90
2019-02-16T22:28:46.027Z,19.55
2019-02-16T22:31:14.372Z,18.32
2019-02-16T22:33:42.618Z,19.48
2019-02-16T22:36:10.953Z,20.70
2019-02-16T22:38:39.697Z,20.43
2019-02-16T22:41:07.965Z,21.00
2019-02-16T22:43:36.268Z,21.73
2019-02-16T22:46:06.071Z,20.43
2019-02-16T22:48:34.300Z,22.00
2019-02-16T22:51:02.581Z,21.35
2019-02-16T22:53:31.602Z,21.37
2019-02-16T22:55:59.838Z,19.85
2019-02-16T22:58:29.179Z,20.20
2019-02-16T23:00:58.227Z,19.92
2019-02-16T23:03:26.486Z,19.35
2019-02-16T23:05:54.785Z,19.87
2019-02-16T23:08:24.441Z,19.50
2019-02-16T23:10:52.769Z,18.67
2019-02-16T23:13:20.997Z,18.73
2019-02-16T23:15:49.584Z,19.40
2019-02-16T23:18:18.009Z,18.25
2019-02-16T23:20:47.773Z,18.85
2019-02-16T23:23:16.178Z,19.37
2019-02-16T23:25:45.604Z,18.82
2019-02-16T23:28:13.868Z,18.87
2019-02-16T23:30:42.348Z,17.82
2019-02-16T23:33:12.013Z,18.67
2019-02-16T23:35:40.289Z,18.25
2019-02-16T23:38:08.602Z,18.30
2019-02-16T23:40:37.873Z,19.27
2019-02-16T23:43:06.113Z,20.27
2019-02-16T23:45:34.417Z,18.48
2019-02-16T23:48:02.834Z,20.10
2019-02-16T23:50:31.153Z,17.15
2019-02-16T23:52:59.388Z,17.90
2019-02-16T23:55:29.591Z,18.10
2019-02-16T23:57:59.492Z,19.67
